Terminal Aerodrome Forecast
Issued by NWS

Home | Current Version | Previous Version | Text Only | Print | Product List | Glossary On
Versions: 1 2 3 4 5 6 7 8 9 10 11 12 13 14 15 16 17 18 19 20 21 22 23 24 25
000
FTUS42 KJAX 221700
TAFVQQ
TAF
KVQQ 221733Z 2218/2318 08007KT P6SM VCTS BKN035CB
      TEMPO 2218/2222 VRB15G30KT 3SM TSRA BKN030CB
     FM230000 10003KT P6SM SCT040 SCT250
     FM230500 00000KT P6SM FEW250
     FM230900 00000KT 4SM BR FEW250
     FM231200 00000KT P6SM FEW250
     FM231500 26003KT P6SM SCT020 SCT250=

USA.gov is the U.S. government's official web portal to all federal, state and local government web resources and services.